Time;durP1;ratioP1;P1;durP2;ratioP2;P2;SDS_P1;SDS_P2;PMS_P1;PMS_P2;Temp;Humidity;BMP_temperature;BMP_pressure;BME280_temperature;BME280_humidity;BME280_pressure;Samples;Min_cycle;Max_cycle;Signal;HPM_P1;HPM_P2
2022/04/21 00:02:19;;;;;;;14.50;6.30;;;;;;;10.11;46.91;97738.78;4425291;32;20150;-79
2022/04/21 00:04:46;;;;;;;;;;;;;;;10.03;46.77;97730.56;4425764;32;20104;-79
2022/04/21 00:07:13;;;;;;;15.43;7.03;;;;;;;9.76;47.74;97740.34;4425647;32;20009;-79
2022/04/21 00:09:40;;;;;;;;;;;;;;;9.21;49.16;97727.31;4425716;32;20102;-79
2022/04/21 00:12:07;;;;;;;14.02;6.28;;;;;;;9.75;47.67;97724.06;4425736;32;19981;-79
2022/04/21 00:14:34;;;;;;;13.80;6.37;;;;;;;10.26;46.23;97729.53;4425487;32;20149;-79
2022/04/21 00:17:01;;;;;;;12.43;6.03;;;;;;;10.17;46.31;97723.03;4425269;32;20122;-79
2022/04/21 00:19:28;;;;;;;13.57;6.25;;;;;;;9.74;47.16;97724.97;4425424;32;20102;-79
2022/04/21 00:24:41;;;;;;;13.18;6.25;;;;;;;9.42;48.42;97726.38;4425457;32;20147;-79
2022/04/21 00:27:08;;;;;;;13.95;6.93;;;;;;;9.33;48.75;97733.66;4425497;32;20142;-79
2022/04/21 00:29:35;;;;;;;13.27;6.50;;;;;;;9.36;48.59;97726.66;4425127;32;20098;-79
2022/04/21 00:32:02;;;;;;;;;;;;;;;9.41;48.73;97726.44;4425839;32;20151;-79
2022/04/21 00:34:29;;;;;;;14.75;7.05;;;;;;;10.35;46.67;97729.94;4425460;32;20315;-79
2022/04/21 00:36:56;;;;;;;13.65;6.20;;;;;;;10.34;46.67;97730.84;4411383;32;20104;-79
2022/04/21 00:39:23;;;;;;;15.45;7.40;;;;;;;10.44;46.88;97728.69;4424927;32;20145;-79
2022/04/21 00:41:55;;;;;;;;;;;;;;;9.93;48.15;97722.41;4425781;32;20133;-79
2022/04/21 00:44:22;;;;;;;12.90;6.85;;;;;;;9.43;49.56;97724.66;4425113;32;19981;-79
2022/04/21 00:46:48;;;;;;;13.95;7.00;;;;;;;9.55;49.65;97726.69;4425328;32;20085;-79
2022/04/21 00:49:18;;;;;;;14.27;7.22;;;;;;;9.80;48.51;97719.56;4425361;32;20157;-79
2022/04/21 00:51:45;;;;;;;14.93;7.00;;;;;;;9.76;49.11;97722.31;4411397;32;20445;-80
2022/04/21 00:54:13;;;;;;;13.38;7.22;;;;;;;10.11;48.17;97720.75;4425138;32;20148;-79
2022/04/21 00:56:41;;;;;;;15.32;6.95;;;;;;;10.08;48.37;97721.69;4425027;32;20102;-79
2022/04/21 00:59:09;;;;;;;12.98;6.85;;;;;;;10.91;46.26;97723.81;4411005;32;20097;-80
2022/04/21 01:04:24;;;;;;;14.00;7.70;;;;;;;11.30;44.86;97722.75;4424901;32;20089;-80
2022/04/21 01:06:52;;;;;;;14.20;7.10;;;;;;;11.53;44.50;97714.63;4425122;32;20229;-79
2022/04/21 01:09:19;;;;;;;14.57;7.12;;;;;;;10.36;46.95;97708.41;4411383;32;20115;-79
2022/04/21 01:11:49;;;;;;;14.27;6.80;;;;;;;10.10;47.68;97707.03;4424893;32;20086;-79
2022/04/21 01:14:17;;;;;;;17.27;7.47;;;;;;;9.83;48.87;97710.84;4425084;32;20157;-79
2022/04/21 01:16:45;;;;;;;13.52;6.90;;;;;;;11.01;45.77;97701.78;4411451;32;20085;-79
2022/04/21 01:19:12;;;;;;;14.30;6.87;;;;;;;11.62;45.01;97697.81;4424547;32;20109;-79
2022/04/21 01:21:39;;;;;;;;;;;;;;;11.17;45.94;97701.88;4425335;32;20507;-79
2022/04/21 01:24:06;;;;;;;14.73;7.53;;;;;;;11.02;46.37;97698.28;4425039;32;19987;-79
2022/04/21 01:26:37;;;;;;;13.85;6.80;;;;;;;11.61;45.62;97697.91;4410986;32;20157;-79
2022/04/21 01:29:07;;;;;;;13.55;7.00;;;;;;;11.56;45.46;97701.56;4424928;32;20089;-79
2022/04/21 01:31:34;;;;;;;15.00;7.07;;;;;;;11.37;46.26;97689.66;4411508;32;20129;-79
2022/04/21 01:34:01;;;;;;;14.35;7.37;;;;;;;11.27;46.10;97687.59;4424578;32;20093;-78
2022/04/21 01:36:28;;;;;;;;;;;;;;;10.69;46.73;97693.06;4425243;32;20670;-79
2022/04/21 01:41:40;;;;;;;16.92;7.22;;;;;;;9.27;50.79;97686.69;4424858;32;20101;-79
2022/04/21 01:44:07;;;;;;;12.90;6.60;;;;;;;8.94;50.82;97680.41;4424616;32;20089;-79
2022/04/21 01:46:34;;;;;;;14.40;7.05;;;;;;;9.23;50.26;97684.31;4424467;32;20166;-79
2022/04/21 01:49:01;;;;;;;14.45;6.90;;;;;;;9.37;49.85;97684.56;4424667;32;20494;-79
2022/04/21 01:51:28;;;;;;;14.00;6.37;;;;;;;10.07;47.30;97689.09;4425059;32;20151;-79
2022/04/21 01:53:56;;;;;;;14.38;7.07;;;;;;;9.75;47.57;97687.16;4426199;32;20093;-79
2022/04/21 01:56:24;;;;;;;14.93;6.85;;;;;;;9.67;47.47;97677.19;4412536;32;20098;-79
2022/04/21 01:58:51;;;;;;;13.48;6.93;;;;;;;9.50;47.58;97679.69;4426263;32;20660;-79
2022/04/21 02:01:18;;;;;;;14.60;7.07;;;;;;;8.52;49.78;97676.13;4426171;32;20090;-79
2022/04/21 02:03:45;;;;;;;14.25;6.90;;;;;;;8.04;51.50;97677.13;4426487;32;20503;-79
2022/04/21 02:06:12;;;;;;;;;;;;;;;8.18;51.13;97670.59;4426725;32;20083;-79
2022/04/21 02:08:39;;;;;;;13.05;6.28;;;;;;;8.32;50.60;97676.06;4426073;32;19977;-79
2022/04/21 02:11:06;;;;;;;13.02;6.20;;;;;;;8.17;50.64;97669.78;4426470;32;20108;-79
2022/04/21 02:13:33;;;;;;;;;;;;;;;8.12;50.65;97671.69;4426743;32;20099;-79
2022/04/21 02:16:00;;;;;;;14.15;6.32;;;;;;;8.76;48.44;97670.88;4426033;32;19969;-79
2022/04/21 02:18:27;;;;;;;12.50;6.62;;;;;;;8.19;50.19;97665.44;4426309;32;20115;-79
2022/04/21 02:20:54;;;;;;;;;;;;;;;9.20;47.54;97669.84;4426726;32;20105;-79
2022/04/21 02:23:20;;;;;;;14.50;6.70;;;;;;;9.08;47.75;97659.22;4426018;32;19986;-79
2022/04/21 02:25:47;;;;;;;;;;;;;;;9.42;46.94;97664.59;4426457;32;20185;-79
2022/04/21 02:28:14;;;;;;;14.38;6.53;;;;;;;9.13;48.07;97659.84;4426122;32;19981;-79
2022/04/21 02:30:41;;;;;;;15.48;6.95;;;;;;;8.93;49.00;97656.44;4426217;32;20102;-79
2022/04/21 02:33:08;;;;;;;13.40;6.70;;;;;;;8.88;49.57;97649.78;4426210;32;20101;-79
2022/04/21 02:35:35;;;;;;;;;;;;;;;8.53;50.63;97653.81;4426174;32;20122;-79
2022/04/21 02:38:02;;;;;;;15.30;7.10;;;;;;;8.73;50.02;97655.59;4426263;32;20032;-79
2022/04/21 02:40:29;;;;;;;14.52;6.80;;;;;;;9.05;49.28;97649.91;4426296;32;20130;-79
2022/04/21 02:42:56;;;;;;;14.73;6.85;;;;;;;9.37;48.41;97651.09;4425873;32;20090;-79
2022/04/21 02:45:23;;;;;;;;;;;;;;;9.80;46.63;97652.56;4426314;32;20456;-79
2022/04/21 02:47:50;;;;;;;14.43;7.07;;;;;;;9.69;46.57;97654.81;4426199;32;19968;-79
2022/04/21 02:50:17;;;;;;;17.02;6.70;;;;;;;9.72;47.51;97653.81;4425901;32;20115;-79
2022/04/21 02:52:45;;;;;;;14.65;7.28;;;;;;;9.31;49.63;97651.34;4426166;32;20131;-79
2022/04/21 02:57:59;;;;;;;14.93;7.03;;;;;;;9.60;48.99;97654.37;4413809;32;20082;-79
2022/04/21 03:00:26;;;;;;;13.73;7.15;;;;;;;9.44;48.46;97644.75;4426228;32;20116;-79
2022/04/21 03:02:53;;;;;;;14.05;6.95;;;;;;;9.61;47.62;97649.16;4425914;32;20096;-79
2022/04/21 03:05:20;;;;;;;15.40;7.32;;;;;;;9.06;49.10;97638.72;4425593;32;20082;-79
2022/04/21 03:07:47;;;;;;;13.95;6.85;;;;;;;8.86;49.97;97641.31;4426005;32;20580;-79
2022/04/21 03:10:14;;;;;;;;;;;;;;;9.41;48.47;97639.75;4426291;32;20137;-79
2022/04/21 03:12:41;;;;;;;15.15;6.95;;;;;;;8.77;50.16;97637.38;4412179;32;19990;-79
2022/04/21 03:15:11;;;;;;;13.02;6.80;;;;;;;9.04;49.07;97635.38;4425882;32;20074;-79
2022/04/21 03:17:39;;;;;;;13.82;6.50;;;;;;;9.05;48.91;97634.47;4425742;32;20097;-79
2022/04/21 03:20:06;;;;;;;13.25;6.75;;;;;;;7.98;51.31;97640.56;4412172;32;20110;-79
2022/04/21 03:25:20;;;;;;;14.43;6.53;;;;;;;7.69;52.94;97637.38;4425536;32;20078;-79
2022/04/21 03:27:50;;;;;;;13.07;6.45;;;;;;;7.62;52.79;97646.19;4412295;32;20121;-79
2022/04/21 03:30:17;;;;;;;14.55;6.80;;;;;;;7.65;52.28;97642.66;4426062;32;20453;-79
2022/04/21 03:32:44;;;;;;;13.52;6.40;;;;;;;7.67;52.55;97641.75;4425588;32;20596;-79
2022/04/21 03:35:11;;;;;;;;;;;;;;;7.55;53.21;97644.75;4425908;32;20135;-79
2022/04/21 03:37:38;;;;;;;14.55;6.75;;;;;;;7.33;54.56;97641.28;4425936;32;20353;-80
2022/04/21 03:40:05;;;;;;;;;;;;;;;7.43;54.69;97650.31;4425819;32;20089;-79
2022/04/21 03:42:32;;;;;;;14.82;6.95;;;;;;;7.76;53.51;97646.53;4425922;32;20480;-79
2022/04/21 03:44:59;;;;;;;;;;;;;;;7.68;54.16;97658.81;4425882;32;20090;-79
2022/04/21 03:47:26;;;;;;;14.48;7.07;;;;;;;8.34;51.84;97649.41;4425349;32;20019;-79
2022/04/21 03:49:53;;;;;;;14.82;6.85;;;;;;;8.54;51.07;97646.03;4425734;32;20113;-79
2022/04/21 03:52:20;;;;;;;;;;;;;;;9.03;50.02;97648.28;4426145;32;20086;-79
2022/04/21 03:54:47;;;;;;;14.23;6.80;;;;;;;8.97;49.72;97644.25;4425562;32;19969;-79
2022/04/21 03:57:14;;;;;;;;;;;;;;;9.34;48.25;97643.47;4425875;32;20155;-79
2022/04/21 03:59:41;;;;;;;17.98;7.10;;;;;;;8.75;49.30;97646.91;4425310;32;20044;-79
2022/04/21 04:02:08;;;;;;;13.73;7.00;;;;;;;9.24;48.13;97642.22;4425676;32;20399;-79
2022/04/21 04:04:36;;;;;;;13.68;6.47;;;;;;;8.49;50.23;97652.25;4425551;32;20212;-79
2022/04/21 04:12:38;;;;;;;15.02;7.22;;;;;;;8.82;52.70;97650.03;4425628;32;20528;-79
2022/04/21 04:15:06;;;;;;;13.75;6.90;;;;;;;9.17;53.38;97651.13;4424441;32;20113;-79
2022/04/21 04:17:34;;;;;;;14.10;7.15;;;;;;;9.69;51.12;97654.81;4425525;32;20404;-79
2022/04/21 04:20:00;;;;;;;13.02;6.72;;;;;;;10.65;48.15;97655.44;4425451;32;20484;-79
2022/04/21 04:22:27;;;;;;;14.40;6.82;;;;;;;11.29;45.63;97659.09;4425259;32;20103;-79
2022/04/21 04:24:56;;;;;;;;;;;;;;;11.60;44.17;97658.31;4412008;32;20078;-79
2022/04/21 04:27:24;;;;;;;14.98;7.35;;;;;;;11.94;43.28;97659.97;4425579;32;20039;-79
2022/04/21 04:29:51;;;;;;;15.40;7.20;;;;;;;12.10;42.45;97662.53;4425272;32;20493;-79
2022/04/21 04:32:18;;;;;;;15.02;7.45;;;;;;;12.21;41.80;97662.75;4425479;32;20387;-79
2022/04/21 04:34:45;;;;;;;14.15;7.22;;;;;;;12.09;41.84;97659.09;4425111;32;20073;-79
2022/04/21 04:37:13;;;;;;;13.85;6.87;;;;;;;11.67;42.99;97659.66;4425318;32;20166;-79
2022/04/21 04:39:39;;;;;;;14.35;7.05;;;;;;;12.05;42.35;97656.78;4411541;32;20172;-79
2022/04/21 04:42:22;;;;;;;13.68;7.40;;;;;;;12.14;42.69;97649.34;4425123;32;20089;-80
2022/04/21 04:46:34;;;;;;;13.85;6.90;;;;;;;12.29;42.79;97652.84;4425293;32;20082;-79
2022/04/21 04:47:38;;;;;;;12.70;6.82;;;;;;;12.51;42.66;97651.63;4425076;32;20116;-79
2022/04/21 04:50:06;;;;;;;13.50;6.75;;;;;;;12.83;42.20;97657.53;4425201;32;20101;-79
2022/04/21 04:52:33;;;;;;;15.00;7.35;;;;;;;13.17;41.29;97656.41;4411559;32;20103;-79
2022/04/21 04:55:00;;;;;;;13.90;6.80;;;;;;;13.72;40.19;97655.72;4424944;32;20204;-79
2022/04/21 04:57:27;;;;;;;13.45;6.85;;;;;;;14.11;40.00;97652.38;4424938;32;20105;-79
2022/04/21 05:00:01;;;;;;;14.10;6.75;;;;;;;14.42;39.01;97654.69;4412218;32;20120;-79
2022/04/21 05:02:28;;;;;;;11.68;6.50;;;;;;;14.67;37.90;97653.97;4425156;32;20136;-79
2022/04/21 05:04:55;;;;;;;16.50;7.05;;;;;;;15.10;37.99;97655.47;4424864;32;20082;-79
2022/04/21 05:07:21;;;;;;;13.00;7.35;;;;;;;16.10;35.65;97664.13;4425072;32;20506;-79
2022/04/21 05:09:48;;;;;;;11.80;6.47;;;;;;;17.20;33.80;97660.44;4424815;32;20551;-80
2022/04/21 05:12:16;;;;;;;12.00;6.65;;;;;;;18.48;32.09;97660.81;4425118;32;20369;-80
2022/04/21 05:14:42;;;;;;;11.88;6.62;;;;;;;19.27;30.75;97663.94;4425039;32;20081;-79
2022/04/21 05:17:10;;;;;;;12.65;6.28;;;;;;;20.33;28.68;97664.34;4424732;32;20359;-80
2022/04/21 05:19:37;;;;;;;15.68;7.30;;;;;;;21.13;27.71;97658.00;4424982;32;20102;-79
2022/04/21 05:22:05;;;;;;;17.73;6.90;;;;;;;21.88;27.22;97658.91;4425095;32;20454;-80
2022/04/21 05:24:32;;;;;;;10.68;6.15;;;;;;;22.57;25.87;97657.56;4424561;32;20401;-80
2022/04/21 05:27:00;;;;;;;12.73;6.15;;;;;;;23.30;24.65;97661.63;4424721;32;20108;-79
2022/04/21 05:32:16;;;;;;;11.73;6.70;;;;;;;24.13;23.33;97663.69;4424645;32;20089;-80
2022/04/21 05:34:43;;;;;;;12.80;6.85;;;;;;;24.76;23.00;97664.00;4424877;32;20161;-79
2022/04/21 05:37:10;;;;;;;11.70;6.72;;;;;;;25.14;22.65;97661.75;4424899;32;20105;-80
2022/04/21 05:39:43;;;;;;;12.75;6.60;;;;;;;25.34;22.37;97662.22;4424593;32;20121;-80
2022/04/21 05:42:20;;;;;;;11.55;6.82;;;;;;;25.06;22.58;97665.19;4424787;32;20104;-79
2022/04/21 05:44:48;;;;;;;10.63;6.25;;;;;;;24.96;23.02;97659.22;4424534;32;20129;-80
2022/04/21 05:47:15;;;;;;;12.82;6.18;;;;;;;25.07;23.04;97650.19;4424653;32;20112;-79
2022/04/21 05:49:43;;;;;;;11.02;6.43;;;;;;;24.63;23.78;97658.41;4424726;32;20152;-79
2022/04/21 05:52:12;;;;;;;10.60;5.97;;;;;;;23.34;25.65;97655.06;4424304;32;20119;-80
2022/04/21 05:54:40;;;;;;;10.27;5.68;;;;;;;22.62;26.97;97652.66;4424646;32;20550;-79
2022/04/21 05:57:07;;;;;;;11.95;6.50;;;;;;;21.71;28.64;97657.06;4410609;32;20108;-79
2022/04/21 05:59:34;;;;;;;12.30;6.28;;;;;;;20.83;29.66;97651.13;4424226;32;20098;-79
2022/04/21 06:02:02;;;;;;;11.02;5.65;;;;;;;21.22;30.06;97651.09;4410891;32;20093;-80
2022/04/21 06:04:29;;;;;;;12.02;6.15;;;;;;;20.42;30.99;97655.72;4424430;32;20074;-79
2022/04/21 06:06:56;;;;;;;11.07;5.97;;;;;;;20.91;30.78;97658.31;4424165;32;20137;-80
2022/04/21 06:09:23;;;;;;;9.93;5.10;;;;;;;21.41;29.66;97663.38;4424442;32;20170;-80
2022/04/21 06:11:50;;;;;;;11.12;5.43;;;;;;;21.28;29.52;97658.44;4424425;32;20171;-79
2022/04/21 06:14:17;;;;;;;8.80;4.95;;;;;;;20.73;30.68;97656.38;4423911;32;20436;-79
2022/04/21 06:16:44;;;;;;;8.73;4.37;;;;;;;20.35;29.40;97656.34;4424294;32;20145;-79
2022/04/21 06:19:11;;;;;;;9.32;4.93;;;;;;;19.10;30.13;97652.25;4424251;32;20153;-79
2022/04/21 06:21:37;;;;;;;8.55;4.30;;;;;;;18.61;31.26;97653.69;4423939;32;20105;-80
2022/04/21 06:24:05;;;;;;;10.75;4.95;;;;;;;18.78;30.03;97655.75;4424114;32;20070;-79
2022/04/21 06:26:32;;;;;;;10.00;4.50;;;;;;;18.20;31.25;97652.63;4424183;32;20138;-80
2022/04/21 06:29:02;;;;;;;9.32;4.43;;;;;;;19.36;29.66;97653.53;4423838;32;20146;-79
2022/04/21 06:31:29;;;;;;;10.70;5.18;;;;;;;19.32;29.85;97648.66;4424203;32;20207;-79
2022/04/21 06:33:57;;;;;;;9.40;4.18;;;;;;;19.63;29.55;97652.97;4423811;32;20143;-79
2022/04/21 06:36:24;;;;;;;9.13;4.20;;;;;;;19.14;29.93;97651.06;4423905;32;20086;-81
2022/04/21 06:38:52;;;;;;;8.77;4.37;;;;;;;18.64;30.35;97653.44;4425552;32;20098;-79
2022/04/21 06:41:19;;;;;;;9.30;4.82;;;;;;;19.31;29.45;97657.47;4425792;32;20168;-80
2022/04/21 06:49:37;;;;;;;8.93;4.37;;;;;;;19.02;30.05;97644.22;4393328;32;20170;-79
2022/04/21 06:52:04;;;;;;;8.55;4.30;;;;;;;19.02;30.02;97649.44;4412968;32;20179;-79
2022/04/21 06:54:31;;;;;;;9.85;4.75;;;;;;;18.85;29.91;97639.56;4425897;32;20103;-81
2022/04/21 06:56:58;;;;;;;8.98;4.20;;;;;;;19.31;29.45;97654.84;4425503;32;20415;-81
2022/04/21 06:59:25;;;;;;;8.27;4.00;;;;;;;19.63;28.84;97652.16;4426169;32;20090;-80
2022/04/21 07:01:52;;;;;;;9.18;4.00;;;;;;;18.59;30.69;97642.50;4412043;32;20107;-83
2022/04/21 07:04:20;;;;;;;9.32;4.97;;;;;;;18.95;30.66;97649.16;4426000;32;20098;-81
2022/04/21 07:06:47;;;;;;;8.85;4.07;;;;;;;19.27;29.83;97645.63;4425897;32;20483;-81
2022/04/21 07:09:15;;;;;;;7.75;3.95;;;;;;;20.21;28.50;97645.31;4425779;32;20101;-81
2022/04/21 07:11:43;;;;;;;9.52;3.70;;;;;;;18.17;29.70;97636.34;4426012;32;20156;-79
2022/04/21 07:14:11;;;;;;;8.98;4.03;;;;;;;19.11;29.04;97643.44;4425884;32;20074;-79
2022/04/21 07:16:38;;;;;;;8.60;4.05;;;;;;;18.26;29.33;97635.63;4425686;32;20478;-79
2022/04/21 07:19:05;;;;;;;9.63;4.05;;;;;;;18.48;29.22;97640.75;4425744;32;20107;-79
2022/04/21 07:21:31;;;;;;;8.75;4.07;;;;;;;18.63;28.62;97643.09;4425975;32;20440;-79
2022/04/21 07:23:58;;;;;;;8.57;4.32;;;;;;;18.60;29.74;97643.31;4425523;32;20141;-79
2022/04/21 07:26:25;;;;;;;8.98;4.30;;;;;;;18.34;31.62;97646.28;4425982;32;20102;-79
2022/04/21 07:28:57;;;;;;;11.07;4.75;;;;;;;17.91;31.45;97643.66;4425872;32;20101;-79
2022/04/21 07:31:24;;;;;;;11.40;5.00;;;;;;;18.60;30.78;97643.31;4425530;32;20200;-79
2022/04/21 07:33:51;;;;;;;9.93;4.22;;;;;;;18.33;30.95;97634.16;4425717;32;20098;-79
2022/04/21 07:36:19;;;;;;;10.38;4.80;;;;;;;18.19;30.26;97644.91;4425784;32;20091;-78
2022/04/21 07:38:47;;;;;;;10.32;4.65;;;;;;;18.35;30.11;97644.50;4425479;32;20408;-78
2022/04/21 07:41:15;;;;;;;8.95;4.30;;;;;;;17.75;31.10;97643.19;4425642;32;20089;-79
2022/04/21 07:43:44;;;;;;;9.00;4.10;;;;;;;17.80;29.79;97647.09;4425696;32;20368;-78
2022/04/21 07:46:11;;;;;;;8.45;3.92;;;;;;;18.13;30.19;97645.37;4411765;32;20581;-78
2022/04/21 07:51:23;;;;;;;8.57;3.62;;;;;;;18.27;29.96;97639.88;4426392;32;20086;-81
2022/04/21 07:53:50;;;;;;;9.10;4.28;;;;;;;18.07;28.55;97658.91;4427873;32;20070;-80
2022/04/21 07:56:17;;;;;;;8.77;4.15;;;;;;;18.04;30.00;97660.00;4428853;32;20110;-79
2022/04/21 07:58:44;;;;;;;8.38;4.40;;;;;;;18.13;30.55;97659.25;4429155;32;20078;-79
2022/04/21 08:01:12;;;;;;;9.10;4.30;;;;;;;18.15;30.04;97657.34;4418183;32;413087;-78
2022/04/21 08:03:41;;;;;;;9.10;4.32;;;;;;;18.16;29.65;97656.41;4433259;32;20104;-79
2022/04/21 08:06:08;;;;;;;9.02;4.37;;;;;;;18.36;30.06;97654.81;4425235;32;20102;-79
2022/04/21 08:08:35;;;;;;;8.60;4.18;;;;;;;17.78;32.00;97659.44;4425364;32;20112;-79
2022/04/21 08:11:02;;;;;;;8.13;4.03;;;;;;;18.61;28.12;97658.03;4425902;32;20357;-80
2022/04/21 08:13:29;;;;;;;10.57;4.37;;;;;;;18.86;28.73;97662.13;4425164;32;20078;-80
2022/04/21 08:15:56;;;;;;;7.55;3.92;;;;;;;18.23;30.43;97664.59;4411853;32;20146;-80
2022/04/21 08:18:23;;;;;;;8.52;3.92;;;;;;;17.49;29.42;97661.66;4425646;32;20173;-80
2022/04/21 08:20:53;;;;;;;10.07;4.43;;;;;;;17.27;30.77;97661.63;4425153;32;20089;-81
2022/04/21 08:23:20;;;;;;;8.82;4.05;;;;;;;19.25;28.63;97666.69;4425444;32;20482;-80
2022/04/21 08:34:13;;;;;;;10.20;4.30;;;;;;;18.64;28.17;97663.03;4413584;32;20097;-79
2022/04/21 08:36:40;;;;;;;7.82;3.90;;;;;;;18.81;27.34;97665.12;4425484;32;20147;-80
2022/04/21 08:39:07;;;;;;;9.23;4.03;;;;;;;19.20;27.70;97662.78;4425436;32;20100;-80
2022/04/21 08:41:41;;;;;;;9.52;4.45;;;;;;;19.52;26.20;97660.06;4425040;32;20088;-80
2022/04/21 08:44:10;;;;;;;9.20;4.65;;;;;;;17.91;29.45;97660.13;4425388;32;20069;-80
2022/04/21 08:46:39;;;;;;;9.55;4.97;;;;;;;17.24;30.31;97659.28;4425385;32;20093;-80
2022/04/21 08:49:07;;;;;;;8.52;4.28;;;;;;;19.21;27.71;97667.03;4425056;32;20082;-81
2022/04/21 08:51:34;;;;;;;10.52;4.53;;;;;;;18.72;29.17;97663.28;4425400;32;20411;-80
2022/04/21 08:54:02;;;;;;;8.85;4.50;;;;;;;18.69;27.65;97658.28;4425316;32;20150;-80
2022/04/21 08:56:30;;;;;;;9.95;4.47;;;;;;;18.50;29.63;97661.53;4425033;32;20090;-78
2022/04/21 08:58:56;;;;;;;8.30;4.15;;;;;;;18.38;29.26;97671.19;4411421;32;20158;-79
2022/04/21 09:01:25;;;;;;;10.40;4.20;;;;;;;17.65;30.41;97658.69;4410678;32;20086;-81
2022/04/21 09:03:52;;;;;;;9.93;4.50;;;;;;;18.84;30.39;97664.06;4411447;32;20085;-80
2022/04/21 09:06:22;;;;;;;8.60;4.30;;;;;;;19.30;28.79;97671.50;4425240;32;20150;-80
2022/04/21 09:09:13;;;;;;;9.70;4.10;;;;;;;19.82;28.01;97681.03;4424867;32;20105;-80
2022/04/21 09:11:43;;;;;;;10.05;4.62;;;;;;;18.74;29.01;97662.19;4425119;32;20082;-80
2022/04/21 09:14:15;;;;;;;9.80;4.20;;;;;;;17.73;29.32;97666.78;4411688;32;20082;-79
2022/04/21 09:16:42;;;;;;;9.57;4.22;;;;;;;18.40;30.28;97678.94;4424869;32;20094;-80
2022/04/21 09:19:09;;;;;;;8.20;3.95;;;;;;;18.13;29.85;97661.06;4425003;32;20098;-80
2022/04/21 09:21:37;;;;;;;9.77;4.65;;;;;;;18.36;29.19;97669.66;4425007;32;20070;-80
2022/04/21 09:24:25;;;;;;;11.00;4.47;;;;;;;16.52;31.88;97668.97;4424503;32;20089;-80
2022/04/21 09:26:53;;;;;;;9.18;4.60;;;;;;;17.38;30.42;97673.84;4425072;32;20154;-80
2022/04/21 09:29:26;;;;;;;9.65;4.55;;;;;;;18.70;29.13;97668.59;4410874;32;20412;-80
2022/04/21 09:32:03;;;;;;;9.15;4.35;;;;;;;18.91;28.71;97673.03;4425095;32;20120;-80
2022/04/21 09:34:37;;;;;;;9.90;4.30;;;;;;;18.18;30.13;97661.50;4411472;32;20097;-80
2022/04/21 09:37:06;;;;;;;10.15;4.37;;;;;;;18.76;27.85;97659.44;4424557;32;20436;-80
2022/04/21 09:39:49;;;;;;;9.77;4.50;;;;;;;18.19;29.39;97655.34;4411139;32;20120;-80
2022/04/21 09:42:29;;;;;;;9.18;4.05;;;;;;;19.32;28.00;97664.34;4425186;32;20082;-80
2022/04/21 09:47:54;;;;;;;8.77;4.37;;;;;;;18.06;27.18;97659.88;4425189;32;20101;-81
2022/04/21 09:50:21;;;;;;;10.57;4.25;;;;;;;18.95;28.25;97656.97;4424298;32;20481;-81
2022/04/21 09:52:50;;;;;;;12.75;4.30;;;;;;;19.94;26.87;97659.00;4424636;32;20112;-81
2022/04/21 09:55:21;;;;;;;9.27;4.40;;;;;;;18.93;29.06;97648.44;4424212;32;20101;-81
2022/04/21 09:58:13;;;;;;;8.40;4.57;;;;;;;18.40;29.73;97652.81;4424178;32;20081;-81
2022/04/21 10:00:44;;;;;;;9.15;4.60;;;;;;;19.15;28.72;97665.78;4424559;32;20146;-82
2022/04/21 10:03:12;;;;;;;10.10;4.10;;;;;;;18.87;30.45;97653.34;4424356;32;20143;-81
2022/04/21 10:05:40;;;;;;;9.18;4.10;;;;;;;18.87;29.38;97648.13;4424039;32;20094;-81
2022/04/21 10:08:09;;;;;;;9.43;4.30;;;;;;;19.66;27.15;97654.50;4410586;32;20520;-81
2022/04/21 10:10:44;;;;;;;9.48;4.35;;;;;;;18.21;27.06;97643.00;4411735;32;20494;-84
2022/04/21 10:13:11;;;;;;;8.07;3.83;;;;;;;20.00;26.18;97644.56;4426783;32;20081;-82
2022/04/21 10:15:38;;;;;;;9.65;4.03;;;;;;;20.24;26.69;97636.34;4430354;32;20139;-82
2022/04/21 10:18:06;;;;;;;10.95;4.28;;;;;;;19.91;26.78;97650.59;4428759;32;20128;-82
2022/04/21 10:20:33;;;;;;;10.02;4.75;;;;;;;19.06;27.62;97636.00;4431749;32;20077;-82
2022/04/21 10:23:02;;;;;;;9.05;4.43;;;;;;;17.64;29.29;97636.16;4432318;32;20101;-82
2022/04/21 10:25:40;;;;;;;9.60;4.25;;;;;;;17.55;29.19;97642.12;4437315;32;20113;-81
2022/04/21 10:28:38;;;;;;;7.20;3.80;;;;;;;18.65;28.84;97635.97;4429284;32;20120;-83
2022/04/21 10:31:31;;;;;;;8.30;4.03;;;;;;;19.54;27.83;97637.19;4421355;32;20169;-82
2022/04/21 10:34:04;;;;;;;7.20;3.53;;;;;;;19.36;27.94;97634.38;4413658;32;20096;-81
2022/04/21 10:36:47;;;;;;;7.55;3.80;;;;;;;19.25;27.44;97629.22;4430316;32;20667;-82
2022/04/21 10:39:17;;;;;;;8.68;3.83;;;;;;;21.24;25.91;97622.91;4427490;32;20154;-79
2022/04/21 10:41:45;;;;;;;8.07;3.70;;;;;;;21.73;25.50;97628.84;4425919;32;20093;-79
2022/04/21 10:44:15;;;;;;;7.85;3.90;;;;;;;20.76;26.28;97614.19;4414157;32;20098;-79
2022/04/21 10:46:42;;;;;;;9.10;3.92;;;;;;;20.94;25.14;97609.03;4433616;32;20713;-79
2022/04/21 10:49:55;;;;;;;7.72;3.75;;;;;;;21.53;23.98;97615.81;4432918;32;20120;-78
2022/04/21 10:57:51;;;;;;;7.62;3.53;;;;;;;19.83;26.20;97619.03;4429871;32;20150;-79
2022/04/21 11:00:29;;;;;;;7.97;3.40;;;;;;;19.11;27.19;97614.69;4429404;32;20473;-79
2022/04/21 11:03:07;;;;;;;8.48;3.97;;;;;;;18.18;27.49;97610.13;4430971;32;20098;-79
2022/04/21 11:05:38;;;;;;;8.75;3.78;;;;;;;19.07;27.19;97608.91;4427345;32;20145;-79
2022/04/21 11:08:17;;;;;;;8.07;3.65;;;;;;;18.73;28.37;97610.06;4428437;32;20148;-79
2022/04/21 11:10:44;;;;;;;7.85;3.80;;;;;;;19.28;28.50;97610.66;4426053;32;20169;-76
2022/04/21 11:13:13;;;;;;;7.20;3.33;;;;;;;18.87;28.59;97603.69;4425766;32;20440;-77
2022/04/21 11:15:53;;;;;;;8.77;3.97;;;;;;;19.12;28.04;97607.66;4425537;32;20152;-78
2022/04/21 11:18:22;;;;;;;9.45;4.10;;;;;;;20.27;26.88;97591.53;4412662;32;20396;-76
2022/04/21 11:20:50;;;;;;;7.07;3.42;;;;;;;19.46;27.46;97603.88;4425672;32;20145;-76
2022/04/21 11:23:29;;;;;;;7.37;3.50;;;;;;;20.29;27.00;97599.25;4425536;32;20086;-76
2022/04/21 11:26:07;;;;;;;8.82;3.60;;;;;;;22.07;24.89;97605.47;4425819;32;20448;-78
2022/04/21 11:28:34;;;;;;;8.98;4.43;;;;;;;22.50;24.08;97602.94;4425507;32;20077;-77
2022/04/21 11:31:03;;;;;;;11.52;4.20;;;;;;;18.77;28.47;97601.00;4412071;32;20157;-76
2022/04/21 11:33:32;;;;;;;9.05;3.50;;;;;;;21.08;26.12;97595.50;4425764;32;20098;-75
2022/04/21 11:36:03;;;;;;;8.88;3.50;;;;;;;20.58;26.46;97584.37;4425210;32;20161;-76
2022/04/21 11:38:32;;;;;;;8.43;3.65;;;;;;;19.96;27.53;97585.56;4425783;32;20085;-76
2022/04/21 11:41:07;;;;;;;7.68;3.08;;;;;;;21.03;25.72;97581.97;4425647;32;20117;-76
2022/04/21 11:43:35;;;;;;;7.00;3.40;;;;;;;22.19;23.98;97584.09;4411812;32;20093;-75
2022/04/21 11:46:07;;;;;;;9.02;3.83;;;;;;;21.78;24.87;97590.66;4425401;32;20106;-76
2022/04/21 11:48:40;;;;;;;7.78;3.33;;;;;;;22.29;24.67;97572.69;4425616;32;20151;-75
2022/04/21 11:51:08;;;;;;;9.98;4.05;;;;;;;21.66;24.15;97582.16;4412022;32;20127;-75
2022/04/21 11:53:37;;;;;;;8.15;4.00;;;;;;;21.08;27.47;97586.78;4425597;32;20112;-76
2022/04/21 11:56:04;;;;;;;7.32;3.70;;;;;;;20.31;26.29;97577.22;4425251;32;20179;-76
2022/04/21 11:58:38;;;;;;;7.12;3.40;;;;;;;20.70;27.14;97578.03;4411534;32;20100;-75
2022/04/21 12:06:55;;;;;;;7.53;3.53;;;;;;;19.57;27.40;97572.41;4413824;32;20153;-79
2022/04/21 12:09:27;;;;;;;7.82;2.87;;;;;;;21.42;24.54;97575.78;4425591;32;20141;-80
2022/04/21 12:11:57;;;;;;;6.82;3.22;;;;;;;22.19;23.84;97570.94;4425462;32;20120;-81
2022/04/21 12:14:24;;;;;;;8.48;3.00;;;;;;;22.37;22.44;97575.38;4425469;32;20113;-80
2022/04/21 12:16:55;;;;;;;5.47;2.90;;;;;;;21.99;22.71;97572.03;4414002;32;20169;-80
2022/04/21 12:19:44;;;;;;;9.23;3.62;;;;;;;22.42;21.95;97571.31;4426443;32;20073;-81
2022/04/21 12:22:17;;;;;;;6.78;3.30;;;;;;;21.95;23.87;97568.03;4426076;32;20151;-80
2022/04/21 12:24:48;;;;;;;5.80;3.00;;;;;;;21.50;23.22;97563.59;4429169;32;20137;-80
2022/04/21 12:27:23;;;;;;;7.25;3.70;;;;;;;21.78;23.77;97559.16;4426771;32;20108;-81
2022/04/21 12:29:56;;;;;;;7.12;3.40;;;;;;;20.90;24.87;97564.88;4426534;32;20134;-79
2022/04/21 12:32:25;;;;;;;8.32;3.70;;;;;;;21.26;24.64;97558.84;4425666;32;20102;-81
2022/04/21 12:34:57;;;;;;;6.93;3.35;;;;;;;21.35;24.13;97546.66;4426192;32;20485;-80
2022/04/21 12:37:34;;;;;;;7.82;3.20;;;;;;;21.58;24.13;97547.09;4412243;32;20474;-81
2022/04/21 12:40:04;;;;;;;7.82;3.55;;;;;;;20.65;26.63;97561.06;4430040;32;20109;-80